Time;durP1;ratioP1;P1;durP2;ratioP2;P2;SDS_P1;SDS_P2;PMS_P1;PMS_P2;Temp;Humidity;BMP_temperature;BMP_pressure;BME280_temperature;BME280_humidity;BME280_pressure;Samples;Min_cycle;Max_cycle;Signal;HPM_P1;HPM_P2
2021/06/19 00:00:17;;;;;;;8.48;2.92;;;;;12.30;101555.00;;;;5129561;27;20529;-74
2021/06/19 00:02:45;;;;;;;8.80;3.08;;;;;12.20;101551.00;;;;5131930;27;20394;-74
2021/06/19 00:05:13;;;;;;;19.73;4.45;;;;;12.30;101536.00;;;;5131780;27;20498;-74
2021/06/19 00:07:41;;;;;;;11.18;5.10;;;;;12.30;101552.00;;;;5131619;27;20034;-74
2021/06/19 00:10:09;;;;;;;6.78;2.67;;;;;12.30;101546.00;;;;5131738;27;20055;-74
2021/06/19 00:12:37;;;;;;;7.35;4.00;;;;;12.20;101560.00;;;;5131500;27;20489;-76
2021/06/19 00:15:09;;;;;;;12.38;5.95;;;;;12.20;101564.00;;;;5131346;27;20031;-76
2021/06/19 00:17:37;;;;;;;5.25;2.70;;;;;12.20;101552.00;;;;5131916;27;20118;-76
2021/06/19 00:20:13;;;;;;;11.00;2.30;;;;;12.30;101560.00;;;;5131747;27;20553;-76
2021/06/19 00:22:40;;;;;;;5.85;1.58;;;;;12.30;101548.00;;;;5132136;27;20037;-75
2021/06/19 00:25:08;;;;;;;10.27;2.30;;;;;12.20;101543.00;;;;5131206;27;20031;-76
2021/06/19 00:27:37;;;;;;;7.30;2.35;;;;;12.20;101544.00;;;;5131353;27;20035;-76
2021/06/19 00:30:09;;;;;;;9.57;2.70;;;;;12.20;101566.00;;;;5131209;27;20431;-76
2021/06/19 00:32:36;;;;;;;11.18;4.32;;;;;12.20;101558.00;;;;5131028;27;20043;-76
2021/06/19 00:35:06;;;;;;;18.52;6.40;;;;;12.20;101559.00;;;;5131233;27;20054;-76
2021/06/19 00:37:36;;;;;;;10.73;5.35;;;;;12.10;101579.00;;;;5131207;27;20023;-76
2021/06/19 00:40:06;;;;;;;9.27;5.07;;;;;12.00;101573.00;;;;5130791;27;20082;-76
2021/06/19 00:42:32;;;;;;;10.77;4.50;;;;;12.00;101564.00;;;;5131280;27;20453;-76
2021/06/19 00:44:59;;;;;;;9.25;3.38;;;;;12.00;101564.00;;;;5131506;27;20031;-76
2021/06/19 00:47:26;;;;;;;8.65;3.22;;;;;12.00;101569.00;;;;5131277;27;20059;-76
2021/06/19 00:49:53;;;;;;;18.70;12.52;;;;;12.00;101548.00;;;;5130823;27;20389;-75
2021/06/19 00:52:20;;;;;;;10.30;5.30;;;;;12.00;101568.00;;;;5130859;27;20035;-76
2021/06/19 00:54:47;;;;;;;10.82;4.53;;;;;12.00;101571.00;;;;5111483;27;20058;-77
2021/06/19 00:57:14;;;;;;;5.07;2.65;;;;;12.00;101559.00;;;;5129405;27;20711;-76
2021/06/19 00:59:43;;;;;;;5.05;2.60;;;;;11.90;101559.00;;;;5130324;27;20065;-76
2021/06/19 01:02:10;;;;;;;9.23;2.38;;;;;11.80;101553.00;;;;5131181;27;20023;-76
2021/06/19 01:04:36;;;;;;;10.20;2.70;;;;;11.70;101544.00;;;;5130595;27;20042;-75
2021/06/19 01:07:03;;;;;;;8.25;3.40;;;;;11.70;101556.00;;;;5130442;27;20763;-76
2021/06/19 01:09:30;;;;;;;10.65;2.80;;;;;11.60;101537.00;;;;5130455;27;20030;-74
2021/06/19 01:11:56;;;;;;;7.97;3.33;;;;;11.70;101524.00;;;;5129678;27;20121;-77
2021/06/19 01:14:23;;;;;;;10.80;4.18;;;;;11.80;101547.00;;;;5130575;27;20023;-76
2021/06/19 01:16:50;;;;;;;6.13;2.72;;;;;11.80;101560.00;;;;5130833;27;20035;-76
2021/06/19 01:19:18;;;;;;;8.45;2.58;;;;;11.80;101541.00;;;;5130200;27;20070;-76
2021/06/19 01:21:44;;;;;;;5.75;2.30;;;;;11.70;101566.00;;;;5130281;27;20034;-76
2021/06/19 01:24:16;;;;;;;6.18;2.75;;;;;11.70;101551.00;;;;5130181;27;20409;-77
2021/06/19 01:26:43;;;;;;;5.55;2.70;;;;;11.70;101563.00;;;;5130276;27;20092;-76
2021/06/19 01:29:11;;;;;;;8.15;3.00;;;;;11.60;101529.00;;;;5130623;27;20072;-76
2021/06/19 01:31:39;;;;;;;7.88;2.80;;;;;11.60;101548.00;;;;5130397;27;20042;-76
2021/06/19 01:34:07;;;;;;;13.32;2.90;;;;;11.60;101531.00;;;;5130256;27;20031;-76
2021/06/19 01:36:34;;;;;;;5.90;2.97;;;;;11.60;101545.00;;;;5130352;27;20106;-75
2021/06/19 01:39:01;;;;;;;8.18;2.97;;;;;11.60;101545.00;;;;5129778;27;20102;-75
2021/06/19 01:41:30;;;;;;;11.70;2.78;;;;;11.60;101541.00;;;;5130093;27;20540;-76
2021/06/19 01:44:01;;;;;;;13.55;3.03;;;;;11.50;101543.00;;;;5129507;27;20091;-75
2021/06/19 01:46:29;;;;;;;6.25;2.63;;;;;11.50;101561.00;;;;5130067;27;20030;-75
2021/06/19 01:48:55;;;;;;;6.95;2.60;;;;;11.50;101541.00;;;;5129630;27;20498;-76
2021/06/19 01:51:22;;;;;;;5.57;2.50;;;;;11.40;101553.00;;;;5129771;27;20470;-75
2021/06/19 01:53:50;;;;;;;4.18;2.38;;;;;11.40;101548.00;;;;5130118;27;20050;-76
2021/06/19 01:56:16;;;;;;;4.57;2.20;;;;;11.40;101531.00;;;;5129905;27;20027;-75
2021/06/19 01:58:43;;;;;;;9.13;2.70;;;;;11.40;101544.00;;;;5130145;27;20051;-75
2021/06/19 02:01:12;;;;;;;10.35;2.90;;;;;11.30;101533.00;;;;5129306;27;20072;-75
2021/06/19 02:03:39;;;;;;;5.97;2.60;;;;;11.30;101543.00;;;;5129767;27;20027;-75
2021/06/19 02:06:06;;;;;;;5.30;2.95;;;;;11.40;101550.00;;;;5129506;27;20035;-76
2021/06/19 02:08:33;;;;;;;6.40;2.85;;;;;11.40;101532.00;;;;5129117;27;20035;-75
2021/06/19 02:11:00;;;;;;;8.20;3.33;;;;;11.40;101550.00;;;;5129564;27;20465;-75
2021/06/19 02:13:27;;;;;;;7.10;3.17;;;;;11.40;101559.00;;;;5129114;27;20050;-76
2021/06/19 02:15:55;;;;;;;5.53;2.97;;;;;11.40;101589.00;;;;5128845;27;20511;-75
2021/06/19 02:18:23;;;;;;;10.88;7.57;;;;;11.40;101567.00;;;;5129761;27;20113;-74
2021/06/19 02:20:53;;;;;;;11.98;6.05;;;;;11.40;101568.00;;;;5129721;27;20550;-75
2021/06/19 02:23:28;;;;;;;7.32;4.03;;;;;11.40;101563.00;;;;5128280;27;20034;-75
2021/06/19 02:25:54;;;;;;;13.77;7.95;;;;;11.40;101570.00;;;;5128611;27;20398;-75
2021/06/19 02:28:23;;;;;;;12.63;6.03;;;;;11.40;101545.00;;;;5128769;27;20031;-76
2021/06/19 02:30:54;;;;;;;14.63;5.68;;;;;11.40;101547.00;;;;5129256;27;20038;-75
2021/06/19 02:33:20;;;;;;;13.18;5.03;;;;;11.30;101550.00;;;;5128921;27;20114;-75
2021/06/19 02:35:48;;;;;;;17.80;5.20;;;;;11.30;101541.00;;;;5128994;27;20362;-76
2021/06/19 02:38:15;;;;;;;5.90;3.67;;;;;11.20;101535.00;;;;5128817;27;20037;-75
2021/06/19 02:40:43;;;;;;;8.73;3.90;;;;;11.20;101538.00;;;;5128525;27;20030;-75
2021/06/19 02:43:11;;;;;;;11.77;3.95;;;;;11.20;101509.00;;;;5129488;27;20038;-76
2021/06/19 02:45:38;;;;;;;11.02;4.13;;;;;11.20;101503.00;;;;5128429;27;20486;-75
2021/06/19 02:48:06;;;;;;;4.82;3.33;;;;;11.10;101485.00;;;;5128356;27;20031;-75
2021/06/19 02:50:35;;;;;;;7.68;3.30;;;;;11.10;101494.00;;;;5128673;27;20027;-76
2021/06/19 02:53:03;;;;;;;11.27;3.45;;;;;11.00;101495.00;;;;5110041;27;20027;-75
2021/06/19 02:55:32;;;;;;;6.40;3.03;;;;;10.90;101495.00;;;;5128883;27;20035;-76
2021/06/19 02:57:59;;;;;;;9.15;3.80;;;;;10.90;101484.00;;;;5128651;27;20029;-76
2021/06/19 03:00:27;;;;;;;8.23;3.28;;;;;10.80;101489.00;;;;5128474;27;20031;-75
2021/06/19 03:02:53;;;;;;;5.72;3.22;;;;;10.80;101492.00;;;;5128011;27;20548;-76
2021/06/19 03:05:24;;;;;;;6.50;3.47;;;;;10.70;101487.00;;;;5128736;27;20080;-75
2021/06/19 03:07:52;;;;;;;10.53;3.23;;;;;10.60;101477.00;;;;5128481;27;20019;-75
2021/06/19 03:10:22;;;;;;;9.45;3.47;;;;;10.60;101482.00;;;;5128221;27;20042;-75
2021/06/19 03:12:49;;;;;;;5.15;3.45;;;;;10.50;101453.00;;;;5128193;27;20640;-75
2021/06/19 03:15:16;;;;;;;6.72;3.30;;;;;10.40;101488.00;;;;5128134;27;20057;-75
2021/06/19 03:17:42;;;;;;;8.40;3.50;;;;;10.30;101480.00;;;;5128173;27;20027;-75
2021/06/19 03:20:11;;;;;;;9.75;2.97;;;;;10.30;101466.00;;;;5128004;27;20023;-76
2021/06/19 03:22:47;;;;;;;10.00;3.13;;;;;10.30;101450.00;;;;5127633;27;20034;-76
2021/06/19 03:25:22;;;;;;;9.50;2.78;;;;;10.20;101454.00;;;;5128007;27;20031;-76
2021/06/19 03:27:50;;;;;;;6.00;2.95;;;;;10.20;101450.00;;;;5128328;27;20063;-76
2021/06/19 03:30:19;;;;;;;12.07;4.10;;;;;10.30;101460.00;;;;5128095;27;20034;-76
2021/06/19 03:32:47;;;;;;;7.53;3.95;;;;;10.20;101458.00;;;;5127798;27;20122;-75
2021/06/19 03:35:14;;;;;;;9.02;3.60;;;;;10.20;101459.00;;;;5127532;27;20063;-76
2021/06/19 03:37:41;;;;;;;7.18;3.20;;;;;10.20;101459.00;;;;5127955;27;20155;-76
2021/06/19 03:40:09;;;;;;;6.60;3.90;;;;;10.20;101461.00;;;;5128047;27;20027;-76
2021/06/19 03:42:37;;;;;;;10.50;4.13;;;;;10.20;101474.00;;;;5127576;27;20118;-76
2021/06/19 03:45:06;;;;;;;14.52;4.03;;;;;10.10;101463.00;;;;5127919;27;20558;-76
2021/06/19 03:47:33;;;;;;;7.38;3.35;;;;;10.20;101453.00;;;;5127801;27;20027;-75
2021/06/19 03:49:59;;;;;;;13.57;4.20;;;;;10.10;101430.00;;;;5127723;28;20023;-76
2021/06/19 03:52:26;;;;;;;10.02;3.13;;;;;10.10;101447.00;;;;5128281;28;20038;-75
2021/06/19 03:54:53;;;;;;;6.90;3.10;;;;;10.10;101467.00;;;;5127677;28;20119;-75
2021/06/19 03:57:30;;;;;;;9.73;2.92;;;;;10.00;101458.00;;;;5127441;28;20047;-76
2021/06/19 03:59:57;;;;;;;6.60;3.83;;;;;9.90;101465.00;;;;5127478;28;20037;-75
2021/06/19 04:02:24;;;;;;;4.75;3.03;;;;;9.90;101483.00;;;;5127788;28;20081;-76
2021/06/19 04:04:51;;;;;;;11.30;4.07;;;;;9.90;101466.00;;;;5127686;28;20451;-76
2021/06/19 04:07:21;;;;;;;6.68;3.25;;;;;9.90;101471.00;;;;5127189;28;20035;-75
2021/06/19 04:09:49;;;;;;;9.55;3.35;;;;;9.80;101499.00;;;;5127298;28;20038;-75
2021/06/19 04:12:19;;;;;;;7.38;3.15;;;;;9.90;101487.00;;;;5127587;28;20127;-76
2021/06/19 04:14:52;;;;;;;7.10;2.60;;;;;10.00;101466.00;;;;5127719;28;20074;-76
2021/06/19 04:17:19;;;;;;;6.95;3.03;;;;;10.00;101478.00;;;;5127398;28;20043;-75
2021/06/19 04:19:47;;;;;;;3.42;2.78;;;;;10.00;101461.00;;;;5127619;28;20035;-76
2021/06/19 04:22:15;;;;;;;4.80;2.75;;;;;10.10;101470.00;;;;5127503;28;20398;-76
2021/06/19 04:24:43;;;;;;;3.22;2.80;;;;;10.10;101456.00;;;;5127462;28;20072;-76
2021/06/19 04:27:18;;;;;;;7.13;3.05;;;;;10.20;101477.00;;;;5126747;28;20039;-75
2021/06/19 04:29:45;;;;;;;8.45;2.80;;;;;10.20;101462.00;;;;5127517;28;20398;-76
2021/06/19 04:32:13;;;;;;;12.65;3.42;;;;;10.30;101455.00;;;;5126825;28;20031;-75
2021/06/19 04:34:41;;;;;;;7.03;3.30;;;;;10.30;101468.00;;;;5127199;28;20032;-75
2021/06/19 04:37:09;;;;;;;6.50;4.15;;;;;10.30;101464.00;;;;5127681;28;20090;-75
2021/06/19 04:39:45;;;;;;;9.30;4.40;;;;;10.40;101458.00;;;;5127285;28;20031;-76
2021/06/19 04:42:15;;;;;;;12.20;4.80;;;;;10.40;101465.00;;;;5127482;28;20485;-75
2021/06/19 04:45:01;;;;;;;17.23;5.10;;;;;10.40;101445.00;;;;5126211;27;20498;-75
2021/06/19 04:47:28;;;;;;;8.80;4.70;;;;;10.40;101454.00;;;;5129241;27;20119;-76
2021/06/19 04:49:56;;;;;;;12.05;4.90;;;;;10.40;101467.00;;;;5130671;27;20509;-75
2021/06/19 04:52:24;;;;;;;11.98;5.18;;;;;10.40;101446.00;;;;5130965;27;20097;-76
2021/06/19 04:54:53;;;;;;;10.85;5.35;;;;;10.40;101471.00;;;;5130923;27;20047;-76
2021/06/19 04:57:20;;;;;;;12.77;5.00;;;;;10.40;101444.00;;;;5130887;27;20039;-75
2021/06/19 04:59:46;;;;;;;10.27;4.47;;;;;10.50;101433.00;;;;5131119;27;20508;-76
2021/06/19 05:02:13;;;;;;;10.85;4.38;;;;;10.50;101422.00;;;;5130891;27;20058;-75
2021/06/19 05:04:39;;;;;;;5.55;3.22;;;;;10.50;101423.00;;;;5130117;27;20560;-75
2021/06/19 05:07:06;;;;;;;10.70;3.65;;;;;10.50;101415.00;;;;5131299;27;20019;-75
2021/06/19 05:09:32;;;;;;;11.82;3.63;;;;;10.50;101427.00;;;;5130535;27;20027;-75
2021/06/19 05:11:59;;;;;;;6.03;3.40;;;;;10.50;101423.00;;;;5130423;27;20027;-75
2021/06/19 05:14:27;;;;;;;8.35;3.78;;;;;10.50;101421.00;;;;5130291;27;20397;-75
2021/06/19 05:16:54;;;;;;;9.90;5.65;;;;;10.50;101408.00;;;;5130385;27;20031;-75
2021/06/19 05:19:21;;;;;;;10.18;5.82;;;;;10.50;101415.00;;;;5130477;27;20058;-76
2021/06/19 05:21:48;;;;;;;14.15;4.72;;;;;10.50;101413.00;;;;5131009;27;20381;-76
2021/06/19 05:24:14;;;;;;;6.75;3.92;;;;;10.50;101406.00;;;;5130510;27;20062;-76
2021/06/19 05:26:41;;;;;;;9.23;3.75;;;;;10.50;101401.00;;;;5130519;27;20019;-75
2021/06/19 05:29:08;;;;;;;7.88;3.63;;;;;10.50;101410.00;;;;5130106;27;20110;-75
2021/06/19 05:31:35;;;;;;;6.65;3.53;;;;;10.50;101402.00;;;;5130073;27;20110;-75
2021/06/19 05:34:02;;;;;;;13.43;4.93;;;;;10.50;101394.00;;;;5130197;27;20071;-76
2021/06/19 05:36:28;;;;;;;10.85;4.57;;;;;10.50;101411.00;;;;5130351;27;20470;-76
2021/06/19 05:38:55;;;;;;;7.70;3.92;;;;;10.50;101407.00;;;;5130305;27;20117;-76
2021/06/19 05:41:21;;;;;;;8.15;3.67;;;;;10.60;101405.00;;;;5130185;27;20039;-75
2021/06/19 05:43:48;;;;;;;12.32;4.38;;;;;10.60;101400.00;;;;5129578;27;20058;-75
2021/06/19 05:46:15;;;;;;;7.47;4.07;;;;;10.60;101404.00;;;;5129760;27;20031;-76
2021/06/19 05:48:41;;;;;;;9.60;3.92;;;;;10.50;101397.00;;;;5130870;27;20735;-75
2021/06/19 05:51:08;;;;;;;10.45;4.43;;;;;10.50;101389.00;;;;5111297;27;20023;-75
2021/06/19 05:53:35;;;;;;;8.95;4.25;;;;;10.50;101406.00;;;;5129995;27;20092;-75
2021/06/19 05:56:01;;;;;;;9.23;3.90;;;;;10.50;101399.00;;;;5129767;27;20073;-75
2021/06/19 05:58:28;;;;;;;6.53;3.70;;;;;10.50;101372.00;;;;5129183;27;20110;-75
2021/06/19 06:00:54;;;;;;;12.60;3.58;;;;;10.50;101361.00;;;;5129322;27;20066;-75
2021/06/19 06:03:21;;;;;;;14.05;3.80;;;;;10.40;101363.00;;;;5129758;27;20517;-75
2021/06/19 06:05:48;;;;;;;7.43;3.45;;;;;10.40;101373.00;;;;5129343;27;20027;-75
2021/06/19 06:08:14;;;;;;;9.35;3.42;;;;;10.40;101363.00;;;;5129664;27;20071;-75
2021/06/19 06:10:41;;;;;;;8.30;3.15;;;;;10.30;101363.00;;;;5129607;27;20489;-75
2021/06/19 06:13:08;;;;;;;7.22;3.13;;;;;10.30;101363.00;;;;5129387;27;20489;-75
2021/06/19 06:15:34;;;;;;;9.82;3.08;;;;;10.30;101363.00;;;;5128782;27;20493;-75
2021/06/19 06:18:01;;;;;;;7.10;3.00;;;;;10.30;101362.00;;;;5129073;27;20033;-76
2021/06/19 06:20:27;;;;;;;5.15;3.03;;;;;10.30;101374.00;;;;5129002;27;20031;-75
2021/06/19 06:22:54;;;;;;;7.90;3.05;;;;;10.30;101367.00;;;;5129211;27;20019;-75
2021/06/19 06:25:20;;;;;;;9.65;3.65;;;;;10.30;101352.00;;;;5128868;27;20031;-75
2021/06/19 06:27:47;;;;;;;5.32;2.83;;;;;10.20;101344.00;;;;5129134;27;20019;-75
2021/06/19 06:30:14;;;;;;;7.53;3.53;;;;;10.20;101377.00;;;;5128837;27;20023;-76
2021/06/19 06:32:41;;;;;;;8.82;3.42;;;;;10.10;101348.00;;;;5129184;27;20477;-75
2021/06/19 06:35:09;;;;;;;7.97;3.10;;;;;10.10;101370.00;;;;5129287;27;20435;-75
2021/06/19 06:37:40;;;;;;;8.70;2.95;;;;;10.20;101360.00;;;;5128957;27;20027;-74
2021/06/19 06:40:10;;;;;;;13.07;3.42;;;;;10.20;101359.00;;;;5128912;27;20035;-75
2021/06/19 06:42:40;;;;;;;9.73;3.40;;;;;10.10;101366.00;;;;5128823;27;20031;-76
2021/06/19 06:45:12;;;;;;;9.27;3.50;;;;;10.10;101356.00;;;;5128477;27;20027;-75
2021/06/19 06:47:38;;;;;;;;;;;;;10.10;101362.00;;;;5111238;27;20023;-75
2021/06/19 06:50:07;;;;;;;8.75;3.22;;;;;10.10;101366.00;;;;5128992;27;19962;-74
2021/06/19 06:52:34;;;;;;;8.48;3.17;;;;;10.00;101371.00;;;;5128656;27;20019;-76
2021/06/19 06:55:02;;;;;;;9.32;3.40;;;;;10.00;101364.00;;;;5129019;27;20096;-74
2021/06/19 06:57:29;;;;;;;12.15;3.47;;;;;9.90;101367.00;;;;5129214;27;20063;-75
2021/06/19 06:59:55;;;;;;;7.97;3.28;;;;;9.80;101365.00;;;;5128645;27;20067;-75
2021/06/19 07:02:22;;;;;;;4.03;2.70;;;;;9.80;101363.00;;;;5127982;27;20441;-75
2021/06/19 07:04:50;;;;;;;7.88;2.80;;;;;9.80;101337.00;;;;5128272;27;20066;-75
2021/06/19 07:07:17;;;;;;;5.88;3.08;;;;;9.70;101346.00;;;;5128238;27;20033;-76
2021/06/19 07:09:43;;;;;;;13.57;3.20;;;;;9.60;101336.00;;;;5127606;27;20027;-75
2021/06/19 07:12:10;;;;;;;9.95;3.00;;;;;9.60;101338.00;;;;5127921;27;20035;-75
2021/06/19 07:14:37;;;;;;;8.88;2.95;;;;;9.50;101328.00;;;;5128809;27;20118;-75
2021/06/19 07:17:10;;;;;;;8.40;2.72;;;;;9.40;101320.00;;;;5128379;27;20504;-75
2021/06/19 07:19:40;;;;;;;11.25;3.40;;;;;9.40;101349.00;;;;5128079;27;20027;-75
2021/06/19 07:22:08;;;;;;;9.57;3.33;;;;;9.40;101356.00;;;;5128490;27;20031;-75
2021/06/19 07:24:36;;;;;;;8.75;3.38;;;;;9.40;101351.00;;;;5128267;27;20643;-75
2021/06/19 07:27:03;;;;;;;12.85;3.80;;;;;9.40;101345.00;;;;5128151;27;20063;-75
2021/06/19 07:29:30;;;;;;;12.27;4.00;;;;;9.40;101331.00;;;;5127786;27;20385;-75
2021/06/19 07:31:57;;;;;;;7.63;3.35;;;;;9.40;101336.00;;;;5128303;27;20027;-74
2021/06/19 07:34:23;;;;;;;6.18;3.25;;;;;9.40;101347.00;;;;5128206;27;20019;-74
2021/06/19 07:36:50;;;;;;;9.77;3.80;;;;;9.40;101332.00;;;;5128058;27;20027;-75
2021/06/19 07:39:16;;;;;;;8.18;3.30;;;;;9.40;101346.00;;;;5127795;27;20043;-75
2021/06/19 07:41:43;;;;;;;11.05;3.58;;;;;9.40;101356.00;;;;5109364;27;20396;-74
2021/06/19 07:44:11;;;;;;;10.18;4.10;;;;;9.50;101373.00;;;;5128498;27;20032;-75
2021/06/19 07:46:38;;;;;;;11.27;4.20;;;;;9.50;101342.00;;;;5127813;27;20019;-75
2021/06/19 07:49:04;;;;;;;7.78;3.75;;;;;9.60;101356.00;;;;5127759;27;20030;-75
2021/06/19 07:51:31;;;;;;;7.32;3.83;;;;;9.60;101378.00;;;;5128011;28;20033;-74
2021/06/19 07:53:57;;;;;;;9.30;4.05;;;;;9.70;101394.00;;;;5127944;28;20584;-75
2021/06/19 07:56:25;;;;;;;13.90;4.57;;;;;9.70;101383.00;;;;5127955;28;20118;-75
2021/06/19 07:58:52;;;;;;;10.68;4.22;;;;;9.80;101375.00;;;;5127421;28;20027;-76
2021/06/19 08:01:18;;;;;;;14.25;4.97;;;;;9.80;101360.00;;;;5127447;28;20022;-75
2021/06/19 08:03:45;;;;;;;10.15;5.57;;;;;9.90;101350.00;;;;5127604;28;20038;-75
2021/06/19 08:06:12;;;;;;;13.82;4.65;;;;;9.90;101358.00;;;;5128188;28;20490;-74
2021/06/19 08:08:38;;;;;;;10.32;4.47;;;;;9.90;101349.00;;;;5128127;28;20031;-75
2021/06/19 08:11:05;;;;;;;10.02;4.07;;;;;10.00;101372.00;;;;5127602;28;20458;-75
2021/06/19 08:13:31;;;;;;;12.88;4.60;;;;;9.90;101339.00;;;;5127946;28;20035;-75
2021/06/19 08:16:00;;;;;;;8.68;4.55;;;;;9.90;101366.00;;;;5127214;28;20119;-74
2021/06/19 08:18:26;;;;;;;7.32;4.90;;;;;10.00;101370.00;;;;5127224;28;20546;-75
2021/06/19 08:20:53;;;;;;;12.82;5.15;;;;;9.90;101357.00;;;;5128801;27;20034;-75
2021/06/19 08:23:20;;;;;;;13.13;4.63;;;;;10.00;101372.00;;;;5131572;27;20039;-75
2021/06/19 08:25:46;;;;;;;12.07;4.60;;;;;9.90;101382.00;;;;5131375;27;20023;-76
2021/06/19 08:28:13;;;;;;;11.95;4.50;;;;;10.00;101364.00;;;;5132053;27;20027;-75
2021/06/19 08:30:39;;;;;;;12.20;4.00;;;;;10.00;101355.00;;;;5131753;27;20027;-75
2021/06/19 08:33:06;;;;;;;15.07;4.28;;;;;10.00;101360.00;;;;5131654;27;20073;-75
2021/06/19 08:35:33;;;;;;;8.57;4.18;;;;;10.00;101381.00;;;;5131465;27;20490;-75
2021/06/19 08:37:59;;;;;;;7.70;4.68;;;;;10.00;101376.00;;;;5131766;27;20066;-75
2021/06/19 08:40:26;;;;;;;6.45;4.07;;;;;10.00;101390.00;;;;5130995;27;21095;-75
2021/06/19 08:42:52;;;;;;;8.05;4.50;;;;;10.00;101385.00;;;;5131129;27;20031;-75
2021/06/19 08:45:21;;;;;;;12.05;4.20;;;;;10.00;101373.00;;;;5131264;27;20027;-75
2021/06/19 08:47:49;;;;;;;8.80;4.80;;;;;10.00;101381.00;;;;5130901;27;20042;-75
2021/06/19 08:50:15;;;;;;;10.60;4.18;;;;;10.00;101397.00;;;;5131412;27;20035;-75
2021/06/19 08:52:44;;;;;;;9.05;3.78;;;;;10.00;101382.00;;;;5131278;27;20019;-75
2021/06/19 08:55:14;;;;;;;10.95;4.60;;;;;10.10;101375.00;;;;5130359;27;20063;-75
2021/06/19 08:57:41;;;;;;;11.88;4.90;;;;;10.10;101381.00;;;;5130500;27;20039;-75
2021/06/19 09:00:10;;;;;;;17.35;5.25;;;;;10.00;101375.00;;;;5130676;27;20031;-74
2021/06/19 09:02:37;;;;;;;11.48;4.97;;;;;10.10;101382.00;;;;5130718;27;20034;-75
2021/06/19 09:05:08;;;;;;;8.13;4.30;;;;;10.10;101362.00;;;;5130643;27;20069;-75
2021/06/19 09:07:36;;;;;;;9.05;4.60;;;;;10.10;101388.00;;;;5131116;27;20062;-75
2021/06/19 09:10:21;;;;;;;10.82;4.95;;;;;10.10;101392.00;;;;5130616;27;20050;-75
2021/06/19 09:12:58;;;;;;;10.98;4.35;;;;;10.10;101368.00;;;;5130756;27;20088;-75
2021/06/19 09:15:27;;;;;;;7.88;4.75;;;;;10.10;101358.00;;;;5130232;27;20027;-75
2021/06/19 09:18:10;;;;;;;9.52;4.90;;;;;10.00;101359.00;;;;5131062;27;20031;-74
2021/06/19 09:20:55;;;;;;;8.25;4.60;;;;;10.00;101370.00;;;;5129956;27;20071;-75
2021/06/19 09:23:40;;;;;;;5.75;3.90;;;;;10.00;101352.00;;;;5130621;27;20478;-75
2021/06/19 09:26:09;;;;;;;8.65;4.60;;;;;10.00;101343.00;;;;5129935;27;20490;-75
2021/06/19 09:29:04;;;;;;;13.00;7.13;;;;;10.00;101348.00;;;;5129834;27;20126;-75
2021/06/19 09:31:50;;;;;;;17.48;7.03;;;;;10.00;101351.00;;;;5130185;27;20050;-74
2021/06/19 09:34:26;;;;;;;17.38;8.93;;;;;9.90;101325.00;;;;5129332;27;20030;-75
2021/06/19 09:36:55;;;;;;;14.93;7.53;;;;;9.90;101334.00;;;;5130808;27;20035;-75
2021/06/19 09:39:24;;;;;;;14.60;8.77;;;;;9.80;101336.00;;;;5129961;27;20114;-75
2021/06/19 09:41:56;;;;;;;15.75;11.65;;;;;9.80;101316.00;;;;5129778;27;20373;-75
2021/06/19 09:44:39;;;;;;;;;;;;;9.80;101305.00;;;;5130893;27;20102;-75
2021/06/19 09:47:11;;;;;;;8.43;6.53;;;;;9.80;101303.00;;;;5130147;27;19919;-75
2021/06/19 09:49:43;;;;;;;11.93;6.70;;;;;9.80;101284.00;;;;5128658;27;20473;-75
2021/06/19 09:52:10;;;;;;;;;;;;;9.80;101305.00;;;;5130176;27;20034;-74
2021/06/19 09:54:43;;;;;;;12.27;6.60;;;;;9.80;101282.00;;;;5129823;27;19923;-75
2021/06/19 09:57:13;;;;;;;12.15;6.72;;;;;9.80;101250.00;;;;5129931;27;20047;-76
2021/06/19 09:59:40;;;;;;;10.82;6.15;;;;;9.70;101227.00;;;;5129341;27;20402;-75
2021/06/19 10:02:27;;;;;;;13.30;6.13;;;;;9.60;101217.00;;;;5129526;27;20019;-76
2021/06/19 10:04:56;;;;;;;8.00;5.88;;;;;9.60;101213.00;;;;5130262;27;20027;-75
2021/06/19 10:07:25;;;;;;;12.32;6.22;;;;;9.60;101228.00;;;;5129815;27;20726;-75
2021/06/19 10:09:54;;;;;;;10.98;5.18;;;;;9.50;101213.00;;;;5129297;27;20494;-75
2021/06/19 10:12:23;;;;;;;8.15;5.22;;;;;9.40;101208.00;;;;5129171;27;20030;-76
2021/06/19 10:14:52;;;;;;;6.43;5.15;;;;;9.40;101186.00;;;;5129520;27;20066;-75
2021/06/19 10:17:23;;;;;;;9.20;5.32;;;;;9.30;101190.00;;;;5129275;27;20370;-75
2021/06/19 10:19:51;;;;;;;11.55;5.25;;;;;9.30;101186.00;;;;5128998;27;20094;-75
2021/06/19 10:22:18;;;;;;;12.40;6.30;;;;;9.20;101187.00;;;;5129270;27;20027;-75
2021/06/19 10:24:45;;;;;;;7.57;5.13;;;;;9.30;101168.00;;;;5129052;27;20023;-75
2021/06/19 10:27:17;;;;;;;10.40;5.65;;;;;9.40;101172.00;;;;5129094;27;20030;-74
2021/06/19 10:29:46;;;;;;;22.20;6.75;;;;;9.50;101188.00;;;;5111661;27;20382;-75
2021/06/19 10:32:14;;;;;;;20.20;7.03;;;;;9.50;101189.00;;;;5128955;27;20036;-75
2021/06/19 10:34:52;;;;;;;13.15;6.60;;;;;9.60;101193.00;;;;5127959;27;20082;-75
2021/06/19 10:37:30;;;;;;;12.65;6.32;;;;;9.50;101226.00;;;;5129137;27;20405;-75
2021/06/19 10:39:58;;;;;;;14.73;5.95;;;;;9.50;101237.00;;;;5128715;27;20015;-75
2021/06/19 10:42:33;;;;;;;12.43;7.05;;;;;9.60;101267.00;;;;5129081;27;20382;-74
2021/06/19 10:45:04;;;;;;;10.73;6.05;;;;;9.60;101246.00;;;;5127263;27;20023;-76
2021/06/19 10:47:34;;;;;;;10.80;6.20;;;;;9.60;101235.00;;;;5110323;27;20074;-75
2021/06/19 10:50:01;;;;;;;9.77;6.72;;;;;9.70;101251.00;;;;5128007;27;20027;-75
2021/06/19 10:52:35;;;;;;;17.98;7.45;;;;;9.80;101247.00;;;;5128817;27;20062;-75
2021/06/19 10:55:11;;;;;;;19.98;10.30;;;;;9.90;101265.00;;;;5128819;27;20051;-75
2021/06/19 10:57:48;;;;;;;7.70;6.38;;;;;9.90;101278.00;;;;5128643;27;20481;-75
2021/06/19 11:00:33;;;;;;;16.50;6.70;;;;;9.90;101300.00;;;;5128530;27;20027;-75
2021/06/19 11:03:02;;;;;;;10.57;6.97;;;;;10.00;101306.00;;;;5129200;27;20079;-75
2021/06/19 11:05:43;;;;;;;12.88;8.15;;;;;10.00;101319.00;;;;5128604;27;20030;-75
2021/06/19 11:08:12;;;;;;;22.85;8.90;;;;;10.10;101300.00;;;;5128252;27;20027;-75
2021/06/19 11:10:51;;;;;;;15.95;8.48;;;;;10.20;101337.00;;;;5128127;27;20481;-75
2021/06/19 11:13:30;;;;;;;17.98;8.25;;;;;10.20;101343.00;;;;5128062;27;20019;-75
2021/06/19 11:15:57;;;;;;;16.63;7.75;;;;;10.30;101330.00;;;;5128280;27;20387;-75
2021/06/19 11:18:52;;;;;;;25.63;8.38;;;;;10.30;101361.00;;;;5128694;27;20474;-75
2021/06/19 11:21:19;;;;;;;13.98;6.72;;;;;10.30;101385.00;;;;5118732;27;20046;-75
2021/06/19 11:24:03;;;;;;;16.63;7.25;;;;;10.40;101380.00;;;;5127830;27;20019;-75
2021/06/19 11:26:52;;;;;;;9.25;6.43;;;;;10.40;101364.00;;;;5128042;27;20438;-76
2021/06/19 11:29:40;;;;;;;11.48;6.65;;;;;10.40;101373.00;;;;5127669;27;20401;-75
2021/06/19 11:32:29;;;;;;;14.02;6.25;;;;;10.40;101365.00;;;;5127746;27;20035;-75
2021/06/19 11:35:00;;;;;;;13.40;6.00;;;;;10.40;101342.00;;;;5127992;27;20096;-75
2021/06/19 11:37:51;;;;;;;12.98;6.97;;;;;10.50;101334.00;;;;5127760;27;20546;-75
2021/06/19 11:40:29;;;;;;;12.23;6.80;;;;;10.60;101322.00;;;;5127942;27;20027;-75
2021/06/19 11:42:56;;;;;;;11.98;7.10;;;;;10.70;101307.00;;;;5127972;27;20019;-75
2021/06/19 11:45:22;;;;;;;9.20;5.80;;;;;10.70;101323.00;;;;5127550;27;20038;-75
2021/06/19 11:48:10;;;;;;;10.95;6.90;;;;;10.80;101303.00;;;;5128093;27;20034;-75
2021/06/19 11:50:44;;;;;;;22.38;8.80;;;;;10.90;101287.00;;;;5127536;27;20035;-75
2021/06/19 11:53:30;;;;;;;14.85;8.48;;;;;11.00;101312.00;;;;5127055;28;20039;-75
2021/06/19 11:56:27;;;;;;;17.08;12.07;;;;;11.20;101306.00;;;;5127443;27;20032;-76
2021/06/19 11:59:02;;;;;;;12.20;8.65;;;;;11.20;101271.00;;;;5110992;28;20047;-75
2021/06/19 12:01:40;;;;;;;17.63;11.07;;;;;11.40;101292.00;;;;5126885;28;20066;-76
2021/06/19 12:04:10;;;;;;;15.98;10.80;;;;;11.50;101306.00;;;;5128224;28;20556;-76
2021/06/19 12:06:42;;;;;;;14.63;9.45;;;;;11.50;101301.00;;;;5127400;28;20046;-76
2021/06/19 12:09:14;;;;;;;;;;;;;11.60;101300.00;;;;5128244;28;20394;-75
2021/06/19 12:11:42;;;;;;;14.95;8.18;;;;;11.70;101303.00;;;;5127887;28;20346;-75
2021/06/19 12:14:39;;;;;;;15.25;7.18;;;;;11.80;101314.00;;;;5127519;28;20053;-74
2021/06/19 12:17:11;;;;;;;26.10;10.07;;;;;11.80;101315.00;;;;5127617;28;20059;-75